Time;durP1;ratioP1;P1;durP2;ratioP2;P2;SDS_P1;SDS_P2;PMS_P1;PMS_P2;Temp;Humidity;BMP_temperature;BMP_pressure;BME280_temperature;BME280_humidity;BME280_pressure;Samples;Min_cycle;Max_cycle;Signal;HPM_P1;HPM_P2
2021/11/29 00:01:23;;;;;;;19.92;10.25;;;;;;;-0.57;95.10;100057.31;5036277;28;20059;-70
2021/11/29 00:03:49;;;;;;;19.02;10.45;;;;;;;-0.47;94.64;100054.94;5040479;28;20437;-70
2021/11/29 00:06:17;;;;;;;19.40;10.80;;;;;;;-0.57;94.70;100056.50;5028376;28;20063;-70
2021/11/29 00:08:43;;;;;;;23.50;10.32;;;;;;;-0.57;95.44;100056.50;5023468;28;20091;-70
2021/11/29 00:11:08;;;;;;;17.92;10.93;;;;;;;-0.60;95.03;100049.88;5034851;28;20041;-70
2021/11/29 00:13:34;;;;;;;26.17;11.15;;;;;;;-0.66;95.33;100056.19;5011970;28;20408;-70
2021/11/29 00:16:00;;;;;;;19.90;10.50;;;;;;;-0.57;94.72;100056.50;5013993;28;20033;-70
2021/11/29 00:18:25;;;;;;;19.58;10.55;;;;;;;-0.70;94.85;100056.47;5034352;28;20384;-69
2021/11/29 00:20:51;;;;;;;19.65;10.52;;;;;;;-0.67;95.17;100062.19;5030458;28;20044;-70
2021/11/29 00:23:17;;;;;;;22.08;11.32;;;;;;;-0.74;94.60;100058.41;5035612;28;20032;-70
2021/11/29 00:25:43;;;;;;;20.13;10.80;;;;;;;-0.69;95.18;100063.22;5037171;28;20700;-70
2021/11/29 00:28:09;;;;;;;22.95;10.98;;;;;;;-0.73;94.80;100064.34;5029360;28;20063;-69
2021/11/29 00:30:36;;;;;;;21.48;10.82;;;;;;;-0.72;94.80;100069.31;5031961;28;20049;-69
2021/11/29 00:33:02;;;;;;;24.83;11.43;;;;;;;-0.78;94.77;100069.72;5030700;28;20037;-69
2021/11/29 00:35:27;;;;;;;23.63;11.23;;;;;;;-0.78;94.44;100079.91;5040209;28;20112;-70
2021/11/29 00:37:52;;;;;;;19.25;10.88;;;;;;;-0.65;94.31;100088.38;5015578;28;20036;-70
2021/11/29 00:40:18;;;;;;;23.52;12.18;;;;;;;-0.67;94.16;100086.84;5039433;28;20041;-70
2021/11/29 00:42:43;;;;;;;19.95;10.73;;;;;;;-0.76;94.52;100085.72;5039191;28;20041;-70
2021/11/29 00:45:10;;;;;;;24.67;12.52;;;;;;;-0.71;94.80;100091.34;5025867;28;20408;-69
2021/11/29 00:47:36;;;;;;;20.38;9.95;;;;;;;-0.74;94.28;100088.97;5058564;28;20480;-70
2021/11/29 00:50:04;;;;;;;18.73;11.93;;;;;;;-0.70;94.62;100085.31;5026692;28;20029;-69
2021/11/29 00:52:29;;;;;;;18.98;10.52;;;;;;;-0.71;94.62;100087.97;5037477;28;20061;-70
2021/11/29 00:54:55;;;;;;;21.67;9.90;;;;;;;-0.72;94.69;100096.50;5036658;28;20036;-69
2021/11/29 00:57:20;;;;;;;26.88;10.43;;;;;;;-0.80;94.39;100095.28;5031313;28;20029;-70
2021/11/29 00:59:46;;;;;;;14.60;10.23;;;;;;;-0.72;94.97;100112.59;5019084;28;20032;-70
2021/11/29 01:02:13;;;;;;;15.88;9.65;;;;;;;-0.71;94.20;100108.34;5011564;28;20029;-70
2021/11/29 01:04:40;;;;;;;18.33;10.15;;;;;;;-0.73;94.17;100111.00;5024113;28;20124;-70
2021/11/29 01:07:05;;;;;;;31.92;10.82;;;;;;;-0.71;93.82;100100.72;5014298;28;20380;-69
2021/11/29 01:09:31;;;;;;;20.42;10.65;;;;;;;-0.72;94.33;100102.41;5032734;28;20086;-70
2021/11/29 01:11:56;;;;;;;21.77;10.07;;;;;;;-0.57;93.91;100109.97;5027666;28;20040;-70
2021/11/29 01:14:22;;;;;;;19.92;10.57;;;;;;;-0.71;93.84;100116.78;5029147;28;20041;-69
2021/11/29 01:16:47;;;;;;;18.20;9.95;;;;;;;-0.75;93.58;100111.97;5027491;28;20033;-70
2021/11/29 01:19:13;;;;;;;19.70;10.75;;;;;;;-0.74;93.44;100111.88;5015955;28;20276;-70
2021/11/29 01:21:39;;;;;;;22.35;10.48;;;;;;;-0.73;93.58;100111.00;5010683;28;20033;-70
2021/11/29 01:24:05;;;;;;;18.55;9.63;;;;;;;-0.78;93.95;100118.09;5010378;28;20196;-70
2021/11/29 01:26:31;;;;;;;22.35;10.77;;;;;;;-0.72;93.86;100117.69;5024487;28;20038;-70
2021/11/29 01:28:56;;;;;;;17.38;9.90;;;;;;;-0.65;93.21;100121.47;5027116;28;20036;-69
2021/11/29 01:31:22;;;;;;;20.15;9.75;;;;;;;-0.81;93.49;100119.13;5010109;28;20033;-69
2021/11/29 01:33:47;;;;;;;29.58;13.38;;;;;;;-0.87;94.05;100131.41;5027762;28;20038;-69
2021/11/29 01:36:13;;;;;;;32.83;15.05;;;;;;;-0.84;93.95;100123.59;5024021;28;20033;-70
2021/11/29 01:38:39;;;;;;;38.17;14.32;;;;;;;-0.92;94.01;100130.88;5010598;28;20029;-69
2021/11/29 01:41:05;;;;;;;30.50;13.07;;;;;;;-0.78;93.45;100135.91;5024266;28;20044;-69
2021/11/29 01:43:31;;;;;;;19.52;10.63;;;;;;;-0.92;94.15;100128.34;5024608;28;20018;-70
2021/11/29 01:45:56;;;;;;;23.65;12.38;;;;;;;-0.99;94.35;100122.84;5032454;28;20127;-69
2021/11/29 01:48:25;;;;;;;18.55;9.35;;;;;;;-0.89;94.13;100138.34;5039868;28;20029;-70
2021/11/29 01:50:54;;;;;;;21.77;9.20;;;;;;;-0.78;93.63;100133.38;5028440;28;20029;-69
2021/11/29 01:53:23;;;;;;;21.85;9.02;;;;;;;-0.79;93.91;100142.75;5032540;28;20026;-69
2021/11/29 01:55:50;;;;;;;17.90;8.82;;;;;;;-0.75;94.12;100140.00;5033130;28;20033;-70
2021/11/29 01:58:16;;;;;;;22.83;9.60;;;;;;;-0.83;94.05;100148.97;5033703;28;20087;-69
2021/11/29 02:00:48;;;;;;;17.45;9.10;;;;;;;-0.83;94.08;100154.06;5031382;28;20519;-69
2021/11/29 02:03:15;;;;;;;20.23;8.90;;;;;;;-0.79;94.20;100159.78;5030485;28;20411;-69
2021/11/29 02:05:41;;;;;;;14.80;8.18;;;;;;;-0.81;94.27;100151.38;5034825;28;20033;-69
2021/11/29 02:08:07;;;;;;;19.67;8.45;;;;;;;-0.79;94.56;100158.03;5028849;28;20029;-69
2021/11/29 02:10:34;;;;;;;21.35;9.30;;;;;;;-0.71;94.86;100155.00;5024035;28;20326;-70
2021/11/29 02:13:00;;;;;;;22.88;9.77;;;;;;;-0.75;94.39;100155.28;5026150;28;20037;-70
2021/11/29 02:15:25;;;;;;;18.33;8.98;;;;;;;-0.70;94.53;100154.06;5027365;28;20110;-69
2021/11/29 02:17:51;;;;;;;14.50;7.88;;;;;;;-0.73;94.53;100163.66;5035320;28;20033;-69
2021/11/29 02:20:19;;;;;;;18.98;8.73;;;;;;;-0.66;94.85;100158.06;5031701;28;20056;-69
2021/11/29 02:22:45;;;;;;;18.67;9.52;;;;;;;-0.83;94.39;100161.69;5028181;28;20045;-70
2021/11/29 02:25:19;;;;;;;15.23;8.57;;;;;;;-0.83;95.13;100171.03;5033159;28;20029;-69
2021/11/29 02:27:46;;;;;;;18.83;8.68;;;;;;;-0.92;94.97;100166.53;5019556;28;20026;-70
2021/11/29 02:30:14;;;;;;;16.92;8.15;;;;;;;-0.92;95.57;100164.81;5027700;28;20033;-69
2021/11/29 02:32:39;;;;;;;17.83;8.43;;;;;;;-0.86;95.48;100159.34;5025585;28;20167;-69
2021/11/29 02:35:06;;;;;;;19.92;9.30;;;;;;;-0.81;95.74;100159.03;5024924;28;20045;-69
2021/11/29 02:37:32;;;;;;;18.30;8.25;;;;;;;-0.85;96.12;100149.97;5026275;28;20049;-70
2021/11/29 02:39:58;;;;;;;19.85;8.15;;;;;;;-0.80;96.48;100142.84;5030486;28;20208;-69
2021/11/29 02:42:23;;;;;;;28.33;9.30;;;;;;;-0.64;96.22;100152.84;5024171;28;20422;-70
2021/11/29 02:44:49;;;;;;;17.13;8.43;;;;;;;-0.63;96.42;100155.28;5024143;28;20472;-70
2021/11/29 02:47:15;;;;;;;17.45;7.13;;;;;;;-0.47;95.95;100144.94;5028849;28;20547;-69
2021/11/29 02:49:40;;;;;;;14.65;6.72;;;;;;;-0.49;95.76;100154.41;5021473;28;20041;-69
2021/11/29 02:52:10;;;;;;;14.40;7.22;;;;;;;-0.56;96.32;100160.81;5024351;28;20060;-70
2021/11/29 02:54:43;;;;;;;13.25;6.97;;;;;;;-0.45;96.47;100153.28;5026060;28;20108;-69
2021/11/29 02:57:20;;;;;;;13.82;7.60;;;;;;;-0.47;95.96;100155.13;5032500;28;20056;-70
2021/11/29 02:59:46;;;;;;;14.98;6.45;;;;;;;-0.41;95.98;100153.91;5030251;28;20044;-70
2021/11/29 03:02:18;;;;;;;15.13;6.68;;;;;;;-0.46;96.35;100158.47;5033773;28;20037;-70
2021/11/29 03:04:45;;;;;;;17.38;6.28;;;;;;;-0.43;96.59;100153.19;5028216;28;20026;-70
2021/11/29 03:07:12;;;;;;;16.17;6.82;;;;;;;-0.38;96.05;100156.25;5026685;28;20060;-70
2021/11/29 03:09:38;;;;;;;13.10;5.60;;;;;;;-0.44;96.23;100151.56;5014312;28;20526;-70
2021/11/29 03:12:04;;;;;;;9.23;5.25;;;;;;;-0.39;96.59;100157.16;5027136;28;20044;-69
2021/11/29 03:14:31;;;;;;;10.65;5.38;;;;;;;-0.36;96.53;100159.50;5033693;28;20480;-70
2021/11/29 03:16:57;;;;;;;12.75;6.03;;;;;;;-0.44;96.18;100175.28;5035736;28;20483;-70
2021/11/29 03:19:28;;;;;;;13.98;5.70;;;;;;;-0.32;95.75;100175.41;5032099;28;20330;-70
2021/11/29 03:21:54;;;;;;;11.60;5.40;;;;;;;-0.31;95.51;100174.50;5025495;28;20048;-70
2021/11/29 03:24:19;;;;;;;9.77;4.57;;;;;;;-0.29;95.30;100175.22;5034222;28;20033;-70
2021/11/29 03:26:45;;;;;;;8.70;4.22;;;;;;;-0.30;95.31;100176.94;5019586;28;20036;-70
2021/11/29 03:29:15;;;;;;;9.93;5.13;;;;;;;-0.32;95.10;100171.16;5033196;28;20503;-69
2021/11/29 03:31:42;;;;;;;10.10;4.90;;;;;;;-0.32;95.49;100163.50;5032065;28;20163;-70
2021/11/29 03:34:10;;;;;;;7.35;4.25;;;;;;;-0.28;95.01;100167.47;5034857;28;20047;-69
2021/11/29 03:36:39;;;;;;;11.80;4.88;;;;;;;-0.32;95.04;100170.31;5032897;28;20474;-70
2021/11/29 03:39:12;;;;;;;9.35;4.22;;;;;;;-0.44;95.31;100169.38;5033397;28;20041;-70
2021/11/29 03:41:39;;;;;;;9.52;4.95;;;;;;;-0.41;95.16;100172.56;5024779;28;20086;-70
2021/11/29 03:44:05;;;;;;;8.70;4.47;;;;;;;-0.50;95.78;100180.78;5034238;28;20104;-69
2021/11/29 03:46:31;;;;;;;9.57;4.65;;;;;;;-0.50;95.61;100182.53;5008414;28;20084;-70
2021/11/29 03:48:57;;;;;;;12.63;4.55;;;;;;;-0.55;95.76;100182.00;5040086;28;20526;-69
2021/11/29 03:51:24;;;;;;;9.32;4.85;;;;;;;-0.47;96.06;100187.41;5027790;28;20029;-70
2021/11/29 03:53:50;;;;;;;11.52;4.40;;;;;;;-0.47;95.97;100184.88;5027638;28;20034;-69
2021/11/29 03:56:15;;;;;;;8.35;3.90;;;;;;;-0.34;95.62;100188.28;5038818;28;20037;-70
2021/11/29 03:58:40;;;;;;;12.13;4.30;;;;;;;-0.50;95.48;100188.44;5035454;28;20037;-69
2021/11/29 04:01:06;;;;;;;10.88;4.68;;;;;;;-0.56;95.64;100183.75;5034700;28;20056;-70
2021/11/29 04:03:32;;;;;;;6.55;4.05;;;;;;;-0.48;95.93;100190.88;5032955;28;20036;-70
2021/11/29 04:05:58;;;;;;;10.05;4.30;;;;;;;-0.56;95.87;100193.13;5027949;28;20044;-70
2021/11/29 04:08:25;;;;;;;12.40;5.38;;;;;;;-0.62;96.38;100202.78;5026324;28;20034;-70
2021/11/29 04:10:51;;;;;;;7.25;3.70;;;;;;;-0.52;96.19;100200.47;5025276;28;20104;-69
2021/11/29 04:13:16;;;;;;;9.70;4.03;;;;;;;-0.61;96.31;100204.41;5029615;28;20499;-69
2021/11/29 04:15:42;;;;;;;10.30;5.38;;;;;;;-0.62;96.32;100205.34;5023482;28;20034;-70
2021/11/29 04:18:07;;;;;;;15.77;6.32;;;;;;;-0.66;96.29;100206.44;5026662;28;20045;-69
2021/11/29 04:20:33;;;;;;;12.98;7.15;;;;;;;-0.59;96.55;100212.75;5033203;28;20025;-70
2021/11/29 04:23:00;;;;;;;47.30;17.15;;;;;;;-0.57;95.87;100205.03;5033767;28;20413;-70
2021/11/29 04:25:27;;;;;;;57.65;20.23;;;;;;;-0.68;96.20;100215.91;5027294;28;20041;-70
2021/11/29 04:27:55;;;;;;;52.47;23.13;;;;;;;-0.77;96.03;100213.13;5029471;28;20250;-70
2021/11/29 04:30:25;;;;;;;50.63;17.95;;;;;;;-0.69;96.42;100223.66;5031260;28;20528;-70
2021/11/29 04:32:53;;;;;;;105.30;33.17;;;;;;;-0.65;96.42;100223.34;5037627;28;20432;-69
2021/11/29 04:35:18;;;;;;;80.45;26.48;;;;;;;-0.65;96.72;100223.34;5025644;28;20504;-70
2021/11/29 04:37:44;;;;;;;33.85;12.90;;;;;;;-0.66;96.28;100220.88;5028760;28;20179;-70
2021/11/29 04:40:11;;;;;;;44.10;15.90;;;;;;;-0.60;96.88;100231.53;5025912;28;20443;-69
2021/11/29 04:42:37;;;;;;;30.52;11.45;;;;;;;-0.59;96.84;100222.94;5028550;28;20041;-70
2021/11/29 04:45:03;;;;;;;11.88;6.22;;;;;;;-0.56;96.63;100233.88;5041953;28;20022;-69
2021/11/29 04:47:29;;;;;;;14.65;5.80;;;;;;;-0.56;96.89;100237.22;5030012;28;20125;-69
2021/11/29 04:49:55;;;;;;;7.85;4.65;;;;;;;-0.53;96.51;100243.84;5028668;28;20434;-69
2021/11/29 04:52:20;;;;;;;6.22;3.78;;;;;;;-0.50;96.43;100253.84;5027590;28;20037;-69
2021/11/29 04:54:46;;;;;;;21.50;8.93;;;;;;;-0.46;96.88;100251.00;5031133;28;20040;-70
2021/11/29 04:57:12;;;;;;;53.05;20.20;;;;;;;-0.49;96.78;100251.22;5031238;28;20415;-69
2021/11/29 04:59:38;;;;;;;34.05;12.73;;;;;;;-0.53;96.45;100251.50;5028467;28;20048;-69
2021/11/29 05:02:04;;;;;;;47.58;15.38;;;;;;;-0.48;96.83;100254.56;5026900;28;20045;-70
2021/11/29 05:04:31;;;;;;;36.88;13.68;;;;;;;-0.49;96.54;100250.38;5030206;28;20099;-69
2021/11/29 05:06:56;;;;;;;36.92;12.80;;;;;;;-0.63;96.90;100252.06;5025882;28;20037;-69
2021/11/29 05:09:22;;;;;;;28.58;10.13;;;;;;;-0.64;96.90;100252.16;5027853;28;20036;-70
2021/11/29 05:11:48;;;;;;;43.22;13.27;;;;;;;-0.59;96.67;100250.97;5029861;28;20050;-69
2021/11/29 05:14:14;;;;;;;18.65;8.00;;;;;;;-0.55;96.62;100251.59;5026012;28;20029;-69
2021/11/29 05:16:41;;;;;;;36.35;13.90;;;;;;;-0.55;96.89;100266.06;5016349;28;20037;-70
2021/11/29 05:19:07;;;;;;;39.97;13.88;;;;;;;-0.51;96.76;100259.84;5026713;28;20075;-70
2021/11/29 05:21:33;;;;;;;75.88;23.52;;;;;;;-0.56;97.05;100269.53;5031940;28;20539;-69
2021/11/29 05:24:00;;;;;;;85.55;24.40;;;;;;;-0.56;96.97;100272.09;5026224;28;20526;-69
2021/11/29 05:26:26;;;;;;;46.10;16.08;;;;;;;-0.62;97.14;100275.84;5025721;28;20650;-70
2021/11/29 05:28:53;;;;;;;38.53;13.75;;;;;;;-0.65;97.15;100278.56;5031065;28;20036;-69
2021/11/29 05:31:19;;;;;;;60.22;17.50;;;;;;;-0.57;97.65;100278.06;5034932;28;20535;-69
2021/11/29 05:33:45;;;;;;;67.60;17.63;;;;;;;-0.65;97.30;100281.13;5025015;28;20036;-69
2021/11/29 05:36:11;;;;;;;95.18;24.33;;;;;;;-0.46;97.36;100273.94;5036806;28;20037;-69
2021/11/29 05:38:36;;;;;;;55.33;16.30;;;;;;;-0.52;97.02;100283.72;5034077;28;20318;-69
2021/11/29 05:41:03;;;;;;;115.47;32.92;;;;;;;-0.47;96.99;100285.06;5028412;28;20033;-69
2021/11/29 05:43:29;;;;;;;149.80;35.47;;;;;;;-0.41;97.27;100299.13;5028178;28;20032;-70
2021/11/29 05:45:56;;;;;;;119.93;32.53;;;;;;;-0.50;97.02;100292.88;5010883;28;20530;-70
2021/11/29 05:48:22;;;;;;;148.90;37.80;;;;;;;-0.44;96.74;100295.03;5025490;28;20037;-69
2021/11/29 05:50:48;;;;;;;129.15;31.45;;;;;;;-0.48;96.59;100297.88;5029156;28;20175;-69
2021/11/29 05:53:13;;;;;;;145.82;54.05;;;;;;;-0.38;97.18;100303.19;5027933;28;20526;-70
2021/11/29 05:55:39;;;;;;;88.03;32.78;;;;;;;-0.36;97.19;100299.63;5024194;28;20427;-70
2021/11/29 05:58:04;;;;;;;56.85;22.42;;;;;;;-0.34;96.46;100304.63;5030036;28;20025;-70
2021/11/29 06:00:30;;;;;;;69.00;23.67;;;;;;;-0.41;96.80;100309.31;5030517;28;20403;-70
2021/11/29 06:02:56;;;;;;;133.82;47.92;;;;;;;-0.40;96.98;100309.22;5029321;28;20120;-70
2021/11/29 06:05:23;;;;;;;55.03;24.75;;;;;;;-0.43;96.89;100313.69;5028372;28;20034;-70
2021/11/29 06:07:49;;;;;;;35.25;18.30;;;;;;;-0.40;97.25;100316.03;5031914;28;20030;-70
2021/11/29 06:10:15;;;;;;;31.60;13.98;;;;;;;-0.32;97.20;100326.56;5036896;28;20038;-70
2021/11/29 06:12:43;;;;;;;58.88;27.25;;;;;;;-0.33;96.94;100324.13;5029967;28;20083;-69
2021/11/29 06:15:09;;;;;;;43.20;20.20;;;;;;;-0.30;97.03;100329.84;5024911;28;20029;-70
2021/11/29 06:17:34;;;;;;;25.48;12.98;;;;;;;-0.29;96.09;100331.47;5029201;28;20384;-70
2021/11/29 06:20:00;;;;;;;20.38;9.75;;;;;;;-0.27;96.42;100334.72;5031319;28;20040;-70
2021/11/29 06:22:25;;;;;;;15.88;9.80;;;;;;;-0.37;96.54;100325.22;5030050;28;20059;-70
2021/11/29 06:24:51;;;;;;;17.98;9.75;;;;;;;-0.36;96.60;100335.31;5031491;28;20471;-70
2021/11/29 06:27:16;;;;;;;19.80;11.85;;;;;;;-0.30;96.32;100337.50;5031606;28;20506;-70
2021/11/29 06:29:44;;;;;;;18.42;9.52;;;;;;;-0.31;96.18;100325.66;5027083;28;20036;-70
2021/11/29 06:32:10;;;;;;;18.00;8.52;;;;;;;-0.34;96.62;100337.75;5008170;28;20505;-70
2021/11/29 06:34:36;;;;;;;13.32;8.60;;;;;;;-0.29;96.15;100323.81;5029385;28;20505;-70
2021/11/29 06:37:02;;;;;;;17.35;10.15;;;;;;;-0.29;96.23;100325.56;5027859;28;20041;-70
2021/11/29 06:39:29;;;;;;;14.88;9.02;;;;;;;-0.30;96.35;100329.84;5025397;28;20029;-69
2021/11/29 06:41:54;;;;;;;13.88;8.82;;;;;;;-0.34;96.88;100333.50;5027412;28;20383;-70
2021/11/29 06:44:20;;;;;;;10.27;6.35;;;;;;;-0.22;96.59;100330.16;5020776;28;20025;-69
2021/11/29 06:46:45;;;;;;;13.88;7.47;;;;;;;-0.25;95.91;100338.00;5025040;28;20488;-70
2021/11/29 06:49:11;;;;;;;38.80;20.48;;;;;;;-0.16;96.45;100340.88;5028368;28;20048;-69
2021/11/29 06:51:36;;;;;;;19.52;10.65;;;;;;;-0.21;95.88;100334.34;5028813;28;20037;-70
2021/11/29 06:54:02;;;;;;;9.93;6.78;;;;;;;-0.13;95.50;100336.41;5028883;28;20029;-70
2021/11/29 06:56:28;;;;;;;11.40;6.20;;;;;;;-0.23;96.07;100359.13;5028583;28;20511;-70
2021/11/29 06:58:53;;;;;;;8.77;5.10;;;;;;;-0.19;96.15;100354.63;5027065;28;20069;-69
2021/11/29 07:01:19;;;;;;;10.13;5.40;;;;;;;-0.17;95.87;100351.97;5021654;28;20038;-70
2021/11/29 07:03:45;;;;;;;10.52;6.07;;;;;;;-0.16;95.80;100358.72;5028739;28;20087;-70
2021/11/29 07:06:11;;;;;;;9.85;5.38;;;;;;;-0.18;96.19;100361.38;5026366;28;20213;-70
2021/11/29 07:08:37;;;;;;;9.02;6.28;;;;;;;-0.17;95.80;100359.63;5040846;28;20147;-70
2021/11/29 07:11:04;;;;;;;11.55;5.72;;;;;;;-0.20;96.55;100360.66;5027703;28;20033;-70
2021/11/29 07:13:29;;;;;;;11.85;6.05;;;;;;;-0.16;95.79;100359.53;5030259;28;20030;-70
2021/11/29 07:15:55;;;;;;;12.13;5.45;;;;;;;-0.17;95.70;100362.19;5024915;28;20032;-70
2021/11/29 07:18:21;;;;;;;9.35;4.75;;;;;;;-0.11;95.93;100369.47;5026771;28;21139;-70
2021/11/29 07:20:47;;;;;;;8.90;4.40;;;;;;;-0.09;95.60;100367.63;5028662;28;20041;-70
2021/11/29 07:23:13;;;;;;;7.70;4.85;;;;;;;-0.06;95.60;100372.50;5026890;28;20033;-70
2021/11/29 07:25:39;;;;;;;10.93;4.82;;;;;;;-0.04;95.36;100370.69;5027564;28;20029;-70
2021/11/29 07:28:04;;;;;;;10.10;4.93;;;;;;;-0.05;95.59;100367.31;5032656;28;20029;-69
2021/11/29 07:30:30;;;;;;;10.07;5.20;;;;;;;-0.09;95.57;100373.53;5036534;28;20465;-70
2021/11/29 07:32:56;;;;;;;8.55;5.03;;;;;;;-0.08;95.75;100379.44;5035290;28;20040;-70
2021/11/29 07:35:24;;;;;;;11.60;5.22;;;;;;;-0.13;95.35;100371.25;5016105;28;20478;-70
2021/11/29 07:37:50;;;;;;;9.82;5.15;;;;;;;-0.08;95.86;100374.34;5036718;28;20074;-70
2021/11/29 07:40:16;;;;;;;7.75;5.38;;;;;;;-0.07;95.63;100370.88;5032213;28;20033;-70
2021/11/29 07:42:42;;;;;;;9.57;6.10;;;;;;;-0.04;95.87;100380.88;5031035;28;20041;-70
2021/11/29 07:45:11;;;;;;;10.55;4.95;;;;;;;-0.02;95.82;100373.94;5031536;28;20060;-69
2021/11/29 07:47:41;;;;;;;12.00;5.00;;;;;;;-0.10;95.89;100382.09;5036441;28;20047;-70
2021/11/29 07:50:14;;;;;;;8.60;4.90;;;;;;;-0.06;95.68;100378.44;5034648;28;20467;-70
2021/11/29 07:52:40;;;;;;;11.25;5.15;;;;;;;-0.07;95.81;100381.09;5036141;28;20040;-69
2021/11/29 07:55:11;;;;;;;8.75;4.78;;;;;;;0.03;95.29;100379.56;5032771;28;20053;-70
2021/11/29 07:57:38;;;;;;;10.23;5.53;;;;;;;0.05;95.53;100389.69;5034801;28;20571;-69
2021/11/29 08:00:08;;;;;;;8.40;4.80;;;;;;;0.12;95.32;100396.03;5027016;28;20065;-69
2021/11/29 08:02:33;;;;;;;9.95;5.22;;;;;;;0.04;95.27;100391.41;5031749;28;20121;-70
2021/11/29 08:04:59;;;;;;;8.00;4.93;;;;;;;0.07;95.43;100390.41;5031788;28;20120;-70
2021/11/29 08:07:26;;;;;;;8.93;5.95;;;;;;;-0.04;95.40;100396.16;5033685;28;20017;-70
2021/11/29 08:09:51;;;;;;;16.58;5.80;;;;;;;-0.02;95.83;100399.44;5040351;28;20040;-70
2021/11/29 08:12:16;;;;;;;14.48;5.25;;;;;;;0.07;95.33;100398.84;5028479;28;20249;-70
2021/11/29 08:14:42;;;;;;;9.93;6.25;;;;;;;0.06;95.80;100399.78;5033163;28;20041;-70
2021/11/29 08:17:08;;;;;;;9.48;5.72;;;;;;;0.03;95.47;100396.59;5030823;28;20658;-70
2021/11/29 08:19:33;;;;;;;9.75;5.60;;;;;;;0.03;95.60;100401.72;5032215;28;20025;-70
2021/11/29 08:21:59;;;;;;;11.02;5.65;;;;;;;0.10;95.45;100402.97;5028192;28;20431;-70
2021/11/29 08:24:25;;;;;;;10.80;6.03;;;;;;;0.15;94.99;100406.84;5034183;28;20080;-70
2021/11/29 08:26:50;;;;;;;10.05;5.90;;;;;;;0.22;95.47;100412.34;5030172;28;20029;-70
2021/11/29 08:29:16;;;;;;;10.85;5.25;;;;;;;0.32;94.95;100420.22;5033096;28;20048;-70
2021/11/29 08:31:42;;;;;;;13.38;5.90;;;;;;;0.35;95.21;100423.41;5030815;28;20044;-70
2021/11/29 08:34:08;;;;;;;17.65;5.75;;;;;;;0.43;94.34;100420.34;5027264;28;20045;-69
2021/11/29 08:36:35;;;;;;;13.82;5.93;;;;;;;0.46;94.91;100417.59;5029790;28;20025;-70
2021/11/29 08:39:01;;;;;;;8.73;4.97;;;;;;;0.45;94.64;100415.16;5027554;28;20115;-70
2021/11/29 08:41:27;;;;;;;10.50;5.70;;;;;;;0.58;94.34;100413.44;5021275;28;20029;-70
2021/11/29 08:43:53;;;;;;;15.32;6.40;;;;;;;0.72;94.35;100418.44;5031170;28;20538;-70
2021/11/29 08:46:19;;;;;;;14.38;6.78;;;;;;;0.80;94.41;100410.28;5028501;28;20056;-70
2021/11/29 08:48:45;;;;;;;16.10;6.55;;;;;;;0.95;93.38;100414.34;5033083;28;20403;-70
2021/11/29 08:51:10;;;;;;;14.40;6.65;;;;;;;0.95;93.40;100413.53;5035083;28;20100;-70
2021/11/29 08:53:37;;;;;;;16.48;6.25;;;;;;;1.04;92.83;100418.03;5031698;28;20088;-70
2021/11/29 08:56:03;;;;;;;15.85;6.55;;;;;;;1.09;92.24;100421.09;5032463;28;20060;-70
2021/11/29 08:58:28;;;;;;;16.30;6.45;;;;;;;1.12;91.96;100418.31;5028998;28;20418;-70
2021/11/29 09:00:54;;;;;;;14.70;6.43;;;;;;;1.11;92.20;100429.47;5036575;28;20040;-70
2021/11/29 09:03:22;;;;;;;11.10;6.03;;;;;;;1.04;92.72;100430.00;5034826;28;20068;-70
2021/11/29 09:05:49;;;;;;;13.63;7.22;;;;;;;1.02;92.24;100431.81;5026326;28;20092;-70
2021/11/29 09:08:15;;;;;;;17.15;7.32;;;;;;;1.05;92.28;100436.72;5030540;28;20033;-70
2021/11/29 09:10:42;;;;;;;14.50;6.50;;;;;;;1.13;92.53;100442.13;5024688;28;20029;-70
2021/11/29 09:13:08;;;;;;;12.48;6.40;;;;;;;1.15;92.79;100437.75;5028236;28;20706;-70
2021/11/29 09:15:35;;;;;;;16.92;6.75;;;;;;;1.10;92.67;100443.16;5026675;28;20063;-70
2021/11/29 09:18:01;;;;;;;12.82;6.75;;;;;;;1.17;92.96;100438.47;5027662;28;20348;-70
2021/11/29 09:20:28;;;;;;;15.68;7.68;;;;;;;1.09;93.13;100454.31;5028131;28;20488;-70
2021/11/29 09:22:55;;;;;;;13.63;6.40;;;;;;;1.12;92.98;100454.09;5035173;28;20084;-70
2021/11/29 09:25:21;;;;;;;13.82;6.97;;;;;;;1.15;93.22;100465.84;5028048;28;20016;-70
2021/11/29 09:27:47;;;;;;;18.50;7.55;;;;;;;1.10;93.76;100467.88;5026791;28;20687;-70
2021/11/29 09:30:14;;;;;;;16.45;7.55;;;;;;;1.12;93.82;100476.25;5025516;28;20037;-70
2021/11/29 09:32:40;;;;;;;17.80;6.57;;;;;;;1.21;93.27;100478.19;5027586;28;20029;-70
2021/11/29 09:35:08;;;;;;;18.58;7.22;;;;;;;1.27;93.81;100472.66;5023570;28;20040;-70
2021/11/29 09:37:35;;;;;;;13.40;6.72;;;;;;;1.32;93.25;100482.59;5038631;28;20069;-70
2021/11/29 09:40:03;;;;;;;14.35;7.20;;;;;;;1.16;93.63;100485.34;5009694;28;20029;-70
2021/11/29 09:42:29;;;;;;;19.02;7.55;;;;;;;1.20;94.49;100486.78;5026288;28;20047;-70
2021/11/29 09:44:55;;;;;;;13.77;7.47;;;;;;;1.27;94.05;100490.56;5029372;28;20108;-70
2021/11/29 09:47:21;;;;;;;17.05;6.43;;;;;;;1.34;93.45;100491.78;5029599;28;20029;-70
2021/11/29 09:49:47;;;;;;;12.48;7.15;;;;;;;1.39;93.41;100500.88;5020852;28;20041;-70
2021/11/29 09:52:12;;;;;;;15.18;7.72;;;;;;;1.45;93.92;100496.16;5027817;28;20034;-70
2021/11/29 09:54:41;;;;;;;16.17;7.55;;;;;;;1.57;93.12;100497.06;5028815;28;20551;-70
2021/11/29 09:57:06;;;;;;;16.27;7.85;;;;;;;1.60;93.36;100499.41;5033903;28;20319;-70
2021/11/29 09:59:32;;;;;;;18.67;7.30;;;;;;;1.63;93.19;100506.03;5031194;28;20405;-70
2021/11/29 10:01:57;;;;;;;19.65;8.00;;;;;;;1.68;92.74;100507.38;5035396;28;20037;-70
2021/11/29 10:04:23;;;;;;;13.52;7.10;;;;;;;1.64;93.03;100516.19;5027887;28;20514;-70
2021/11/29 10:06:54;;;;;;;19.92;6.90;;;;;;;1.63;93.17;100511.16;5039155;28;20068;-70
2021/11/29 10:09:38;;;;;;;14.88;6.70;;;;;;;1.64;93.14;100516.19;5030073;28;20503;-70
2021/11/29 10:12:25;;;;;;;17.27;6.63;;;;;;;1.71;93.35;100509.72;5032272;28;20037;-70
2021/11/29 10:15:20;;;;;;;15.75;7.32;;;;;;;1.71;93.37;100514.00;5031998;28;20044;-70
2021/11/29 10:17:47;;;;;;;14.93;7.35;;;;;;;1.83;93.36;100514.88;5028573;28;20056;-70
2021/11/29 10:20:13;;;;;;;14.55;6.18;;;;;;;1.83;93.36;100517.44;5025765;28;20029;-70
2021/11/29 10:22:38;;;;;;;13.73;7.03;;;;;;;1.91;93.36;100515.19;5030135;28;20095;-70
2021/11/29 10:25:18;;;;;;;13.55;6.88;;;;;;;1.97;93.50;100521.63;5029320;28;20471;-70
2021/11/29 10:27:45;;;;;;;15.02;6.43;;;;;;;2.01;93.34;100513.59;5033124;28;20037;-70
2021/11/29 10:30:20;;;;;;;12.63;6.28;;;;;;;2.15;93.64;100510.09;5027687;28;20033;-70
2021/11/29 10:32:48;;;;;;;17.00;5.95;;;;;;;2.21;93.96;100508.84;5030208;28;20024;-70
2021/11/29 10:35:22;;;;;;;17.27;5.72;;;;;;;2.22;93.79;100516.38;5041838;28;20703;-70
2021/11/29 10:37:49;;;;;;;16.88;6.53;;;;;;;2.29;93.62;100516.78;5025367;28;20390;-70
2021/11/29 10:40:16;;;;;;;16.13;5.55;;;;;;;2.20;94.22;100518.25;5026129;28;20029;-70
2021/11/29 10:42:42;;;;;;;14.45;6.20;;;;;;;2.16;94.43;100518.56;5033312;28;20041;-70
2021/11/29 10:45:19;;;;;;;26.98;7.68;;;;;;;2.27;95.07;100524.56;5031728;28;20034;-70
2021/11/29 10:47:48;;;;;;;11.77;5.57;;;;;;;2.18;94.81;100519.28;5035066;28;20033;-70
2021/11/29 10:50:14;;;;;;;11.55;4.95;;;;;;;2.25;95.06;100528.97;5028653;28;20040;-70
2021/11/29 10:52:42;;;;;;;11.20;5.05;;;;;;;2.33;94.54;100525.88;5024120;28;20563;-71
2021/11/29 10:55:10;;;;;;;11.48;5.20;;;;;;;2.31;94.77;100527.72;5025187;28;20475;-70
2021/11/29 10:57:44;;;;;;;16.55;5.88;;;;;;;2.30;94.77;100528.66;5026616;28;20029;-70
2021/11/29 11:00:14;;;;;;;17.63;5.18;;;;;;;2.38;94.85;100536.59;5000390;28;20115;-70
2021/11/29 11:02:40;;;;;;;16.35;5.00;;;;;;;2.52;94.39;100541.56;5023079;28;20099;-71
2021/11/29 11:05:12;;;;;;;9.18;4.63;;;;;;;2.48;94.51;100539.31;5024322;28;20029;-71
2021/11/29 11:07:39;;;;;;;8.57;4.80;;;;;;;2.44;94.75;100545.59;5027723;28;20037;-72
2021/11/29 11:10:09;;;;;;;13.98;5.55;;;;;;;2.52;94.56;100546.69;5027012;28;20463;-70
2021/11/29 11:12:36;;;;;;;14.63;4.78;;;;;;;2.55;94.34;100550.75;5026291;28;20116;-70
2021/11/29 11:15:14;;;;;;;13.77;5.15;;;;;;;2.51;94.28;100544.22;5026992;28;20041;-70